Archival Weather

Republic

Farmingdale, New York (KFRG)

Report from: Sunday, January 28, 2024 10:21 AM EST
Current time: Monday, June 17, 2024 4:04 AM EDT

Current weather – Weather history – Daily summaries
Weather forecast

Temperature4.4°C (39.9°F)
Wind chill-0.1°C (31.7°F)
Dew point2.8°C (37.0°F)
Winds 13 kts (6.7 m/s, 15 mph) East-Northeast (70°)
Wind gusts 21 kts (10.8 m/s, 24.2 mph)
Visibility10 mi. (16.1 km)
Clouds Ceiling: Broken clouds 900 ft. (274 m)
Broken clouds 3,800 ft. (1,158 m)
Overcast 5,000 ft. (1,524 m)
Altimeter29.82 in.Hg (1010 mB)
Relative humidity89 %
Density altitude-1,055 ft. (-322 m)
Remarks Automated weather observing station without precipitation discriminator
Flight conditions Instrument Meteorological Conditions
Raw dataKFRG 281521Z 07013G21KT 10SM BKN009 BKN038 OVC050 04/03 A2982 RMK AO1 T00440028
An error has occurred. This application may no longer respond until reloaded. Reload 🗙